Time;durP1;ratioP1;P1;durP2;ratioP2;P2;SDS_P1;SDS_P2;PMS_P1;PMS_P2;Temp;Humidity;BMP_temperature;BMP_pressure;BME280_temperature;BME280_humidity;BME280_pressure;Samples;Min_cycle;Max_cycle;Signal;HPM_P1;HPM_P2
2023/07/28 00:00:24;;;;;;;;;;;;;;;17.54;100.00;97489.19;2536576;29;19935;-85
2023/07/28 00:02:00;;;;;;;;;;;;;;;17.53;100.00;97490.16;2534303;29;19931;-85
2023/07/28 00:03:15;;;;;;;;;;;;;;;17.61;100.00;97482.50;2536518;29;20026;-84
2023/07/28 00:04:31;;;;;;;;;;;;;;;17.57;100.00;97485.50;2534447;29;19931;-84
2023/07/28 00:05:47;;;;;;;;;;;;;;;17.50;100.00;97485.09;2533156;29;19932;-84
2023/07/28 00:07:02;;;;;;;;;;;;;;;17.60;100.00;97482.63;2536058;29;19935;-84
2023/07/28 00:08:18;;;;;;;;;;;;;;;17.63;100.00;97491.19;2524332;29;19943;-84
2023/07/28 00:09:33;;;;;;;;;;;;;;;17.59;100.00;97489.69;2518208;29;19932;-84
2023/07/28 00:10:49;;;;;;;;;;;;;;;17.49;100.00;97486.03;2530078;29;19927;-84
2023/07/28 00:12:04;;;;;;;;;;;;;;;17.41;100.00;97491.03;2535545;29;20632;-85
2023/07/28 00:13:19;;;;;;;;;;;;;;;17.48;100.00;97487.00;2533376;29;19935;-84
2023/07/28 00:14:35;;;;;;;;;;;;;;;17.34;100.00;97480.91;2535568;29;19958;-84
2023/07/28 00:15:50;;;;;;;;;;;;;;;17.41;100.00;97483.09;2534612;29;19927;-84
2023/07/28 00:17:06;;;;;;;;;;;;;;;17.29;100.00;97490.94;2533274;29;19931;-84
2023/07/28 00:18:21;;;;;;;;;;;;;;;17.47;100.00;97486.13;2533859;29;20186;-85
2023/07/28 00:19:37;;;;;;;;;;;;;;;17.58;100.00;97488.00;2535253;29;19942;-84
2023/07/28 00:20:52;;;;;;;;;;;;;;;17.65;100.00;97483.97;2533416;29;20916;-84
2023/07/28 00:22:08;;;;;;;;;;;;;;;17.70;100.00;97485.44;2534125;29;19931;-84
2023/07/28 00:23:23;;;;;;;;;;;;;;;17.69;100.00;97483.75;2533160;29;19935;-86
2023/07/28 00:24:39;;;;;;;;;;;;;;;17.60;100.00;97479.97;2535274;29;19938;-85
2023/07/28 00:25:54;;;;;;;;;;;;;;;17.58;100.00;97480.06;2533581;29;20406;-84
2023/07/28 00:27:10;;;;;;;;;;;;;;;17.48;100.00;97474.59;2533930;29;19979;-84
2023/07/28 00:28:25;;;;;;;;;;;;;;;17.50;100.00;97472.69;2536147;29;19942;-85
2023/07/28 00:29:41;;;;;;;;;;;;;;;17.58;100.00;97477.41;2535204;29;19938;-84
2023/07/28 00:30:56;;;;;;;;;;;;;;;17.57;100.00;97481.03;2532840;29;19936;-84
2023/07/28 00:32:12;;;;;;;;;;;;;;;17.27;100.00;97481.44;2534318;29;20022;-85
2023/07/28 00:33:27;;;;;;;;;;;;;;;17.17;100.00;97475.94;2533468;29;19928;-85
2023/07/28 00:34:43;;;;;;;;;;;;;;;17.35;100.00;97474.66;2533204;29;20395;-84
2023/07/28 00:35:58;;;;;;;;;;;;;;;17.20;100.00;97473.09;2535467;29;19957;-84
2023/07/28 00:37:14;;;;;;;;;;;;;;;17.24;100.00;97477.22;2522581;29;19979;-85
2023/07/28 00:38:29;;;;;;;;;;;;;;;17.20;100.00;97475.75;2527794;29;19938;-84
2023/07/28 00:39:44;;;;;;;;;;;;;;;17.11;100.00;97479.03;2536011;29;19931;-84
2023/07/28 00:41:00;;;;;;;;;;;;;;;17.22;100.00;97476.47;2535342;29;19931;-85
2023/07/28 00:42:15;;;;;;;;;;;;;;;17.30;100.00;97476.75;2522467;29;19931;-84
2023/07/28 00:43:30;;;;;;;;;;;;;;;17.29;100.00;97474.25;2529011;29;19931;-84
2023/07/28 00:44:46;;;;;;;;;;;;;;;17.28;100.00;97480.50;2535776;29;19963;-85
2023/07/28 00:46:01;;;;;;;;;;;;;;;17.32;100.00;97468.72;2534157;29;20391;-85
2023/07/28 00:47:17;;;;;;;;;;;;;;;17.36;100.00;97475.47;2534231;29;19978;-84
2023/07/28 00:48:32;;;;;;;;;;;;;;;17.33;100.00;97473.06;2533175;29;19954;-85
2023/07/28 00:49:48;;;;;;;;;;;;;;;17.31;100.00;97467.84;2534610;29;19931;-85
2023/07/28 00:51:03;;;;;;;;;;;;;;;17.32;100.00;97469.59;2535742;29;20302;-84
2023/07/28 00:52:19;;;;;;;;;;;;;;;17.29;100.00;97464.47;2533389;29;19938;-86
2023/07/28 00:53:34;;;;;;;;;;;;;;;17.30;100.00;97458.25;2533038;29;19935;-85
2023/07/28 00:54:50;;;;;;;;;;;;;;;17.35;100.00;97455.25;2533322;29;20304;-84
2023/07/28 00:56:09;;;;;;;;;;;;;;;17.26;100.00;97456.78;2534184;29;20462;-85
2023/07/28 00:57:27;;;;;;;;;;;;;;;17.22;100.00;97452.66;2535338;29;20026;-84
2023/07/28 00:58:42;;;;;;;;;;;;;;;17.28;100.00;97454.03;2534903;29;19927;-85
2023/07/28 00:59:58;;;;;;;;;;;;;;;17.26;100.00;97454.13;2534049;29;19979;-85
2023/07/28 01:01:13;;;;;;;;;;;;;;;17.27;100.00;97453.16;2534035;29;19934;-85
2023/07/28 01:02:32;;;;;;;;;;;;;;;17.46;100.00;97455.34;2523735;29;19928;-85
2023/07/28 01:03:47;;;;;;;;;;;;;;;17.32;100.00;97451.06;2517108;29;19931;-85
2023/07/28 01:05:03;;;;;;;;;;;;;;;17.43;100.00;97450.28;2528697;29;19932;-85
2023/07/28 01:06:24;;;;;;;;;;;;;;;17.39;100.00;97450.59;2534685;29;19967;-85
2023/07/28 01:07:52;;;;;;;;;;;;;;;17.49;100.00;97443.69;2533343;29;19983;-85
2023/07/28 01:09:13;;;;;;;;;;;;;;;17.50;100.00;97443.56;2535643;29;19931;-84
2023/07/28 01:10:32;;;;;;;;;;;;;;;17.54;100.00;97444.19;2534273;29;20014;-85
2023/07/28 01:11:58;;;;;;;;;;;;;;;17.58;100.00;97435.06;2533445;29;19931;-84
2023/07/28 01:13:13;;;;;;;;;;;;;;;17.58;100.00;97435.06;2533881;29;20315;-84
2023/07/28 01:14:28;;;;;;;;;;;;;;;17.47;100.00;97442.97;2532824;29;19928;-84
2023/07/28 01:15:44;;;;;;;;;;;;;;;17.54;100.00;97441.56;2535861;29;19927;-84
2023/07/28 01:16:59;;;;;;;;;;;;;;;17.34;100.00;97445.63;2532808;29;20098;-84
2023/07/28 01:18:15;;;;;;;;;;;;;;;17.39;100.00;97440.88;2531331;29;19931;-84
2023/07/28 01:19:31;;;;;;;;;;;;;;;17.43;100.00;97444.13;2534574;29;19973;-84
2023/07/28 01:20:47;;;;;;;;;;;;;;;17.52;100.00;97446.13;2533066;29;19931;-84
2023/07/28 01:22:21;;;;;;;;;;;;;;;17.47;100.00;97441.16;2532547;29;20430;-85
2023/07/28 01:23:39;;;;;;;;;;;;;;;17.37;100.00;97442.78;2534310;29;20292;-86
2023/07/28 01:25:00;;;;;;;;;;;;;;;17.33;100.00;97438.66;2532502;29;19931;-85
2023/07/28 01:26:16;;;;;;;;;;;;;;;17.37;100.00;97445.41;2533062;29;20054;-84
2023/07/28 01:27:32;;;;;;;;;;;;;;;17.44;100.00;97438.75;2535205;29;19935;-85
2023/07/28 01:28:47;;;;;;;;;;;;;;;17.50;100.00;97438.28;2532722;29;19986;-85
2023/07/28 01:30:03;;;;;;;;;;;;;;;17.51;100.00;97439.13;2524168;29;20219;-85
2023/07/28 01:31:19;;;;;;;;;;;;;;;17.62;100.00;97436.56;2526262;29;19984;-85
2023/07/28 01:32:35;;;;;;;;;;;;;;;17.65;100.00;97433.69;2532645;29;19932;-85
2023/07/28 01:33:50;;;;;;;;;;;;;;;17.61;100.00;97429.59;2535245;29;19935;-85
2023/07/28 01:35:06;;;;;;;;;;;;;;;17.34;100.00;97435.91;2523803;29;19932;-85
2023/07/28 01:36:22;;;;;;;;;;;;;;;17.41;100.00;97427.53;2529313;29;19994;-87
2023/07/28 01:37:37;;;;;;;;;;;;;;;17.37;100.00;97426.91;2533518;29;20375;-85
2023/07/28 01:38:53;;;;;;;;;;;;;;;17.41;100.00;97428.38;2534219;29;20307;-84
2023/07/28 01:40:09;;;;;;;;;;;;;;;17.41;100.00;97427.53;2533435;29;20021;-85
2023/07/28 01:41:24;;;;;;;;;;;;;;;17.36;100.00;97427.84;2534253;29;19942;-84
2023/07/28 01:42:40;;;;;;;;;;;;;;;17.50;100.00;97429.50;2523740;29;20393;-84
2023/07/28 01:43:55;;;;;;;;;;;;;;;17.43;100.00;97430.91;2529192;29;19927;-84
2023/07/28 01:45:11;;;;;;;;;;;;;;;17.40;100.00;97428.47;2532704;29;20318;-84
2023/07/28 01:46:26;;;;;;;;;;;;;;;17.44;100.00;97432.59;2534763;29;19982;-85
2023/07/28 01:47:41;;;;;;;;;;;;;;;17.44;100.00;97438.75;2535169;29;19949;-84
2023/07/28 01:48:57;;;;;;;;;;;;;;;17.42;100.00;97440.66;2534736;29;20569;-84
2023/07/28 01:50:12;;;;;;;;;;;;;;;17.38;100.00;97433.88;2532699;29;19932;-84
2023/07/28 01:51:28;;;;;;;;;;;;;;;17.51;100.00;97433.84;2533465;29;20700;-84
2023/07/28 01:52:43;;;;;;;;;;;;;;;17.41;100.00;97430.16;2535536;29;20034;-86
2023/07/28 01:53:59;;;;;;;;;;;;;;;17.51;100.00;97439.13;2533653;29;19982;-84
2023/07/28 01:55:14;;;;;;;;;;;;;;;17.60;100.00;97435.84;2533070;29;20310;-84
2023/07/28 01:56:30;;;;;;;;;;;;;;;17.51;100.00;97428.56;2534640;29;19932;-86
2023/07/28 01:57:54;;;;;;;;;;;;;;;17.50;100.00;97427.69;2532449;29;20015;-84
2023/07/28 01:59:09;;;;;;;;;;;;;;;17.52;100.00;97430.25;2533005;29;19931;-84
2023/07/28 02:00:26;;;;;;;;;;;;;;;17.59;100.00;97434.13;2535697;29;19994;-84
2023/07/28 02:01:41;;;;;;;;;;;;;;;17.56;100.00;97431.69;2532311;29;19930;-84
2023/07/28 02:02:58;;;;;;;;;;;;;;;17.64;100.00;97424.06;2535102;29;20405;-84
2023/07/28 02:04:13;;;;;;;;;;;;;;;17.62;100.00;97425.13;2534772;29;19938;-85
2023/07/28 02:05:29;;;;;;;;;;;;;;;17.71;100.00;97427.09;2532771;29;19927;-84
2023/07/28 02:06:45;;;;;;;;;;;;;;;17.61;100.00;97426.06;2534171;29;20052;-84
2023/07/28 02:08:00;;;;;;;;;;;;;;;17.67;100.00;97424.78;2534689;29;19962;-85
2023/07/28 02:09:17;;;;;;;;;;;;;;;17.74;100.00;97421.56;2532887;29;20658;-85
2023/07/28 02:10:32;;;;;;;;;;;;;;;17.74;100.00;97423.34;2533176;29;19937;-85
2023/07/28 02:11:48;;;;;;;;;;;;;;;17.74;100.00;97426.00;2534854;29;20306;-85
2023/07/28 02:13:03;;;;;;;;;;;;;;;17.69;100.00;97420.22;2532638;29;19927;-87
2023/07/28 02:14:18;;;;;;;;;;;;;;;17.76;100.00;97422.28;2534283;29;19958;-85
2023/07/28 02:15:34;;;;;;;;;;;;;;;17.90;100.00;97425.72;2535694;29;20470;-85
2023/07/28 02:16:49;;;;;;;;;;;;;;;17.92;100.00;97422.00;2523175;29;20406;-85
2023/07/28 02:18:05;;;;;;;;;;;;;;;17.84;100.00;97420.91;2526123;29;20051;-85
2023/07/28 02:19:20;;;;;;;;;;;;;;;17.72;100.00;97425.28;2534207;29;19927;-85
2023/07/28 02:20:38;;;;;;;;;;;;;;;17.63;100.00;97422.38;2532997;29;19927;-85
2023/07/28 02:21:54;;;;;;;;;;;;;;;17.49;100.00;97417.25;2534792;29;19927;-85
2023/07/28 02:23:09;;;;;;;;;;;;;;;17.46;100.00;97415.66;2533694;29;19935;-84
2023/07/28 02:24:25;;;;;;;;;;;;;;;17.39;100.00;97414.44;2532632;29;19934;-85
2023/07/28 02:25:40;;;;;;;;;;;;;;;17.56;100.00;97415.81;2533692;29;19967;-84
2023/07/28 02:26:56;;;;;;;;;;;;;;;17.70;100.00;97416.59;2534318;29;19934;-84
2023/07/28 02:28:11;;;;;;;;;;;;;;;17.52;100.00;97419.66;2533823;29;19931;-85
2023/07/28 02:29:27;;;;;;;;;;;;;;;17.51;100.00;97423.25;2533856;29;19931;-85
2023/07/28 02:30:42;;;;;;;;;;;;;;;17.60;100.00;97421.75;2533448;29;20538;-84
2023/07/28 02:31:58;;;;;;;;;;;;;;;17.58;100.00;97416.56;2532334;29;19932;-84
2023/07/28 02:33:13;;;;;;;;;;;;;;;17.74;100.00;97412.78;2534914;29;19931;-84
2023/07/28 02:34:29;;;;;;;;;;;;;;;17.57;100.00;97417.50;2533873;29;19935;-84
2023/07/28 02:35:44;;;;;;;;;;;;;;;17.41;100.00;97419.59;2533307;29;19938;-84
2023/07/28 02:36:59;;;;;;;;;;;;;;;17.50;100.00;97413.63;2533974;29;19938;-84
2023/07/28 02:38:15;;;;;;;;;;;;;;;17.41;100.00;97416.94;2533302;29;19931;-84
2023/07/28 02:39:30;;;;;;;;;;;;;;;17.55;100.00;97415.94;2533888;29;19974;-87
2023/07/28 02:40:46;;;;;;;;;;;;;;;17.60;100.00;97421.75;2532625;29;19991;-86
2023/07/28 02:42:01;;;;;;;;;;;;;;;17.56;100.00;97423.75;2534149;29;20294;-87
2023/07/28 02:43:16;;;;;;;;;;;;;;;17.48;100.00;97415.56;2533738;29;19932;-86
2023/07/28 02:44:32;;;;;;;;;;;;;;;17.54;100.00;97415.09;2532568;29;20383;-84
2023/07/28 02:45:54;;;;;;;;;;;;;;;17.44;100.00;97424.66;2524602;29;19980;-84
2023/07/28 02:47:10;;;;;;;;;;;;;;;17.45;100.00;97418.41;2527596;29;20014;-86
2023/07/28 02:48:25;;;;;;;;;;;;;;;17.39;100.00;97424.16;2533618;29;19942;-86
2023/07/28 02:49:42;;;;;;;;;;;;;;;17.67;100.00;97424.78;2534061;29;19931;-85
2023/07/28 02:50:58;;;;;;;;;;;;;;;17.68;100.00;97423.81;2533522;29;19947;-84
2023/07/28 02:52:13;;;;;;;;;;;;;;;17.78;100.00;97427.50;2532646;29;20399;-85
2023/07/28 02:53:28;;;;;;;;;;;;;;;17.47;100.00;97427.09;2534115;29;19928;-85
2023/07/28 02:54:44;;;;;;;;;;;;;;;17.48;100.00;97421.69;2532890;29;19983;-85
2023/07/28 02:55:59;;;;;;;;;;;;;;;17.45;100.00;97424.56;2532349;29;19928;-86
2023/07/28 02:57:15;;;;;;;;;;;;;;;17.57;100.00;97427.25;2535671;29;19927;-86
2023/07/28 02:58:30;;;;;;;;;;;;;;;17.61;100.00;97421.63;2536952;29;19927;-86
2023/07/28 02:59:45;;;;;;;;;;;;;;;17.69;100.00;97421.06;2537514;29;19978;-85
2023/07/28 03:01:03;;;;;;;;;;;;;;;17.67;100.00;97425.63;2535904;29;19938;-86
2023/07/28 03:02:19;;;;;;;;;;;;;;;17.66;100.00;97431.88;2534828;29;19931;-85
2023/07/28 03:03:34;;;;;;;;;;;;;;;17.43;100.00;97430.91;2537298;29;19927;-86
2023/07/28 03:04:49;;;;;;;;;;;;;;;17.59;100.00;97428.81;2536176;29;19927;-86
2023/07/28 03:06:05;;;;;;;;;;;;;;;17.39;100.00;97432.09;2534909;29;19928;-85
2023/07/28 03:07:20;;;;;;;;;;;;;;;17.27;100.00;97431.19;2537178;29;20383;-85
2023/07/28 03:08:36;;;;;;;;;;;;;;;17.42;100.00;97429.22;2536297;29;19935;-85
2023/07/28 03:09:51;;;;;;;;;;;;;;;17.42;100.00;97426.56;2534248;29;20413;-86
2023/07/28 03:11:07;;;;;;;;;;;;;;;17.26;100.00;97429.50;2535878;29;19931;-85
2023/07/28 03:12:22;;;;;;;;;;;;;;;17.43;100.00;97426.47;2534267;29;20304;-85
2023/07/28 03:13:37;;;;;;;;;;;;;;;17.50;100.00;97432.16;2534288;29;19935;-85
2023/07/28 03:14:53;;;;;;;;;;;;;;;17.70;100.00;97427.19;2536251;29;19950;-86
2023/07/28 03:16:09;;;;;;;;;;;;;;;17.65;100.00;97425.75;2535361;29;20292;-86
2023/07/28 03:17:24;;;;;;;;;;;;;;;17.70;100.00;97429.84;2535603;29;19947;-86
2023/07/28 03:18:40;;;;;;;;;;;;;;;17.72;100.00;97431.44;2535579;29;19953;-86
2023/07/28 03:19:55;;;;;;;;;;;;;;;17.82;100.00;97428.13;2535421;29;19931;-86
2023/07/28 03:21:11;;;;;;;;;;;;;;;17.79;100.00;97429.19;2525079;29;19932;-86
2023/07/28 03:22:26;;;;;;;;;;;;;;;17.79;100.00;97432.66;2527790;29;20602;-86
2023/07/28 03:23:41;;;;;;;;;;;;;;;17.71;100.00;97436.81;2536363;29;19927;-86
2023/07/28 03:24:57;;;;;;;;;;;;;;;17.69;100.00;97438.75;2535278;29;19943;-86
2023/07/28 03:26:12;;;;;;;;;;;;;;;17.68;100.00;97431.75;2535282;29;19938;-86
2023/07/28 03:27:28;;;;;;;;;;;;;;;17.39;100.00;97434.72;2536517;29;19927;-85
2023/07/28 03:28:44;;;;;;;;;;;;;;;17.46;100.00;97433.31;2536171;29;19927;-86
2023/07/28 03:29:59;;;;;;;;;;;;;;;17.52;100.00;97432.88;2524121;29;19928;-86
2023/07/28 03:31:15;;;;;;;;;;;;;;;17.61;100.00;97429.59;2528402;29;20406;-86
2023/07/28 03:32:30;;;;;;;;;;;;;;;17.78;100.00;97424.84;2535759;29;19931;-84
2023/07/28 03:33:45;;;;;;;;;;;;;;;17.59;100.00;97434.13;2534610;29;19935;-86
2023/07/28 03:35:01;;;;;;;;;;;;;;;17.41;100.00;97432.81;2524296;29;19941;-86
2023/07/28 03:36:16;;;;;;;;;;;;;;;17.55;100.00;97432.66;2527220;29;19939;-85
2023/07/28 03:37:32;;;;;;;;;;;;;;;17.51;100.00;97425.91;2535499;29;19928;-85
2023/07/28 03:38:47;;;;;;;;;;;;;;;17.61;100.00;97424.28;2535262;29;20348;-84
2023/07/28 03:40:03;;;;;;;;;;;;;;;17.56;100.00;97434.34;2534222;29;19935;-84
2023/07/28 03:41:18;;;;;;;;;;;;;;;17.55;100.00;97426.53;2535028;29;19974;-86
2023/07/28 03:42:34;;;;;;;;;;;;;;;17.45;100.00;97436.91;2533903;29;19927;-84
2023/07/28 03:43:49;;;;;;;;;;;;;;;17.38;100.00;97438.34;2534343;29;19934;-85
2023/07/28 03:45:05;;;;;;;;;;;;;;;17.47;100.00;97433.22;2535230;29;19928;-85
2023/07/28 03:46:20;;;;;;;;;;;;;;;17.41;100.00;97433.69;2524587;29;20419;-85
2023/07/28 03:47:36;;;;;;;;;;;;;;;17.39;100.00;97434.72;2529183;29;20896;-85
2023/07/28 03:48:52;;;;;;;;;;;;;;;17.46;100.00;97430.66;2534015;29;19943;-84
2023/07/28 03:50:08;;;;;;;;;;;;;;;17.58;100.00;97435.06;2534646;29;20382;-84
2023/07/28 03:51:23;;;;;;;;;;;;;;;17.43;100.00;97437.06;2535257;29;19931;-85
2023/07/28 03:52:38;;;;;;;;;;;;;;;17.32;100.00;97440.47;2535105;29;20347;-84
2023/07/28 03:53:54;;;;;;;;;;;;;;;17.34;100.00;97435.91;2533622;29;20454;-85
2023/07/28 03:55:09;;;;;;;;;;;;;;;17.41;100.00;97438.97;2536276;29;19931;-85
2023/07/28 03:56:24;;;;;;;;;;;;;;;17.33;100.00;97430.72;2535218;29;19950;-84
2023/07/28 03:57:40;;;;;;;;;;;;;;;17.28;100.00;97438.16;2533624;29;20546;-84
2023/07/28 03:58:55;;;;;;;;;;;;;;;17.28;100.00;97436.34;2526147;29;19995;-85
2023/07/28 04:00:11;;;;;;;;;;;;;;;17.28;100.00;97432.88;2528446;29;19966;-84
2023/07/28 04:01:26;;;;;;;;;;;;;;;17.33;100.00;97436.03;2534451;29;19931;-84
2023/07/28 04:02:42;;;;;;;;;;;;;;;17.53;100.00;97434.56;2525123;29;20039;-85
2023/07/28 04:03:58;;;;;;;;;;;;;;;17.56;100.00;97444.09;2528681;29;20000;-85
2023/07/28 04:05:13;;;;;;;;;;;;;;;17.39;100.00;97440.03;2535005;29;19931;-84
2023/07/28 04:06:42;;;;;;;;;;;;;;;17.30;100.00;97436.25;2536844;29;20174;-84
2023/07/28 04:07:57;;;;;;;;;;;;;;;17.28;100.00;97439.00;2532801;29;19927;-84
2023/07/28 04:09:13;;;;;;;;;;;;;;;17.17;100.00;97434.47;2534804;29;19946;-86
2023/07/28 04:10:29;;;;;;;;;;;;;;;17.27;100.00;97442.59;2534409;29;19931;-84
2023/07/28 04:11:44;;;;;;;;;;;;;;;17.21;100.00;97445.69;2533552;29;19931;-84
2023/07/28 04:13:00;;;;;;;;;;;;;;;17.13;100.00;97443.59;2534182;29;19931;-88
2023/07/28 04:14:15;;;;;;;;;;;;;;;17.15;100.00;97451.41;2536219;29;19966;-84
2023/07/28 04:15:31;;;;;;;;;;;;;;;17.03;100.00;97455.75;2535286;29;19928;-85
2023/07/28 04:16:46;;;;;;;;;;;;;;;17.05;100.00;97451.22;2533526;29;20281;-84
2023/07/28 04:18:01;;;;;;;;;;;;;;;17.15;100.00;97461.97;2536010;29;19928;-84
2023/07/28 04:19:17;;;;;;;;;;;;;;;17.17;100.00;97454.78;2535617;29;19935;-84
2023/07/28 04:20:32;;;;;;;;;;;;;;;17.10;100.00;97461.47;2536664;29;19935;-84
2023/07/28 04:21:48;;;;;;;;;;;;;;;17.18;100.00;97451.16;2536405;29;19979;-84
2023/07/28 04:23:03;;;;;;;;;;;;;;;17.22;100.00;97455.31;2533411;29;19934;-84
2023/07/28 04:24:18;;;;;;;;;;;;;;;17.22;100.00;97455.31;2534496;29;19931;-84
2023/07/28 04:25:34;;;;;;;;;;;;;;;17.19;100.00;97455.53;2524984;29;20536;-85
2023/07/28 04:26:49;;;;;;;;;;;;;;;17.21;100.00;97454.44;2527955;29;19938;-85
2023/07/28 04:28:05;;;;;;;;;;;;;;;17.11;100.00;97457.88;2536786;29;19932;-84
2023/07/28 04:29:20;;;;;;;;;;;;;;;16.95;100.00;97464.22;2535236;29;19982;-86
2023/07/28 04:30:35;;;;;;;;;;;;;;;17.15;100.00;97461.97;2533221;29;20288;-86
2023/07/28 04:31:51;;;;;;;;;;;;;;;17.12;100.00;97467.50;2535596;29;20419;-83
2023/07/28 04:33:06;;;;;;;;;;;;;;;17.28;100.00;97464.63;2536496;29;19931;-84
2023/07/28 04:34:22;;;;;;;;;;;;;;;17.14;100.00;97465.56;2534813;29;19931;-84
2023/07/28 04:35:37;;;;;;;;;;;;;;;17.31;100.00;97457.28;2534593;29;20061;-84
2023/07/28 04:36:53;;;;;;;;;;;;;;;17.22;100.00;97466.72;2533525;29;19935;-83
2023/07/28 04:38:08;;;;;;;;;;;;;;;17.40;100.00;97468.16;2533461;29;19966;-84
2023/07/28 04:39:23;;;;;;;;;;;;;;;17.55;100.00;97464.41;2535370;29;19935;-84
2023/07/28 04:40:39;;;;;;;;;;;;;;;17.60;100.00;97459.66;2524548;29;19931;-84
2023/07/28 04:41:54;;;;;;;;;;;;;;;17.57;100.00;97459.84;2527192;29;19931;-84
2023/07/28 04:43:10;;;;;;;;;;;;;;;17.45;100.00;97466.03;2535194;29;19979;-84
2023/07/28 04:44:25;;;;;;;;;;;;;;;17.51;100.00;97465.59;2525069;29;20055;-84
2023/07/28 04:45:41;;;;;;;;;;;;;;;17.39;100.00;97459.41;2529821;29;19934;-84
2023/07/28 04:46:56;;;;;;;;;;;;;;;17.58;100.00;97464.19;2536045;29;20021;-84
2023/07/28 04:48:12;;;;;;;;;;;;;;;17.55;100.00;97459.13;2533395;29;19932;-84
2023/07/28 04:49:27;;;;;;;;;;;;;;;17.62;100.00;97457.75;2534137;29;20447;-84
2023/07/28 04:50:44;;;;;;;;;;;;;;;17.68;100.00;97451.16;2534446;29;19928;-84
2023/07/28 04:51:59;;;;;;;;;;;;;;;17.53;100.00;97453.09;2534604;29;20295;-84
2023/07/28 04:53:15;;;;;;;;;;;;;;;17.65;100.00;97454.00;2534952;29;20049;-84
2023/07/28 04:54:30;;;;;;;;;;;;;;;17.71;100.00;97460.66;2535437;29;20358;-84
2023/07/28 04:55:45;;;;;;;;;;;;;;;17.64;100.00;97450.53;2534051;29;19982;-84
2023/07/28 04:57:01;;;;;;;;;;;;;;;17.65;100.00;97457.50;2534355;29;19931;-84
2023/07/28 04:58:16;;;;;;;;;;;;;;;17.70;100.00;97453.66;2534008;29;20002;-84
2023/07/28 04:59:32;;;;;;;;;;;;;;;17.79;100.00;97447.72;2533012;29;19983;-84
2023/07/28 05:00:47;;;;;;;;;;;;;;;17.71;100.00;97450.91;2534731;29;19931;-84
2023/07/28 05:02:02;;;;;;;;;;;;;;;17.64;100.00;97447.88;2524137;29;19938;-84
2023/07/28 05:03:18;;;;;;;;;;;;;;;17.71;100.00;97458.00;2526975;29;19927;-84
2023/07/28 05:04:33;;;;;;;;;;;;;;;17.74;100.00;97449.81;2533091;29;20281;-84
2023/07/28 05:05:49;;;;;;;;;;;;;;;17.81;100.00;97452.88;2533443;29;20062;-84
2023/07/28 05:07:05;;;;;;;;;;;;;;;17.86;100.00;97446.28;2535008;29;19928;-84
2023/07/28 05:08:20;;;;;;;;;;;;;;;17.98;100.00;97456.94;2534212;29;19954;-84
2023/07/28 05:09:37;;;;;;;;;;;;;;;18.11;100.00;97447.13;2533947;29;19982;-86
2023/07/28 05:10:52;;;;;;;;;;;;;;;18.04;100.00;97456.53;2533028;29;19931;-84
2023/07/28 05:12:08;;;;;;;;;;;;;;;18.07;100.00;97456.28;2534175;29;19931;-85
2023/07/28 05:13:24;;;;;;;;;;;;;;;17.92;100.00;97453.78;2535846;29;19931;-84
2023/07/28 05:14:40;;;;;;;;;;;;;;;17.94;100.00;97451.00;2522527;29;19928;-84
2023/07/28 05:15:55;;;;;;;;;;;;;;;17.83;100.00;97454.47;2529499;29;19934;-84
2023/07/28 05:17:11;;;;;;;;;;;;;;;18.01;100.00;97451.41;2535568;29;19931;-84
2023/07/28 05:18:26;;;;;;;;;;;;;;;17.86;100.00;97453.41;2534086;29;19931;-84
2023/07/28 05:19:41;;;;;;;;;;;;;;;17.98;100.00;97446.34;2535814;29;19931;-84
2023/07/28 05:20:57;;;;;;;;;;;;;;;17.99;100.00;97442.72;2524383;29;19932;-84
2023/07/28 05:22:12;;;;;;;;;;;;;;;18.17;100.00;97451.13;2527328;29;20310;-84
2023/07/28 05:23:28;;;;;;;;;;;;;;;18.12;100.00;97443.53;2535100;29;20881;-84
2023/07/28 05:24:46;;;;;;;;;;;;;;;17.73;100.00;97442.84;2533274;29;20101;-84
2023/07/28 05:26:05;;;;;;;;;;;;;;;18.00;100.00;97449.72;2536190;29;19978;-84
2023/07/28 05:27:20;;;;;;;;;;;;;;;17.90;100.00;97450.41;2525566;29;20312;-85
2023/07/28 05:28:35;;;;;;;;;;;;;;;17.82;100.00;97447.47;2526653;29;19931;-84
2023/07/28 05:29:51;;;;;;;;;;;;;;;17.92;100.00;97448.50;2532726;29;19927;-85
2023/07/28 05:31:07;;;;;;;;;;;;;;;17.90;100.00;97449.56;2533291;29;19937;-84
2023/07/28 05:32:22;;;;;;;;;;;;;;;18.02;100.00;97447.78;2522840;29;19987;-84
2023/07/28 05:33:38;;;;;;;;;;;;;;;17.96;100.00;97450.91;2527976;29;20435;-84
2023/07/28 05:34:54;;;;;;;;;;;;;;;18.18;100.00;97447.53;2535117;29;19979;-84
2023/07/28 05:36:09;;;;;;;;;;;;;;;18.02;100.00;97453.97;2534672;29;19931;-84
2023/07/28 05:37:25;;;;;;;;;;;;;;;18.12;100.00;97456.78;2533900;29;19958;-84
2023/07/28 05:38:40;;;;;;;;;;;;;;;18.24;100.00;97460.31;2535589;29;19932;-85
2023/07/28 05:39:56;;;;;;;;;;;;;;;18.29;100.00;97462.59;2535265;29;20308;-85
2023/07/28 05:41:11;;;;;;;;;;;;;;;18.44;100.00;97458.81;2533810;29;20284;-86
2023/07/28 05:42:26;;;;;;;;;;;;;;;18.52;100.00;97449.41;2535641;29;19932;-84
2023/07/28 05:43:42;;;;;;;;;;;;;;;18.58;100.00;97454.25;2532767;29;20401;-85
2023/07/28 05:44:58;;;;;;;;;;;;;;;18.53;100.00;97451.97;2535577;29;20403;-85
2023/07/28 05:46:14;;;;;;;;;;;;;;;18.60;100.00;97457.63;2534449;29;20003;-84
2023/07/28 05:47:29;;;;;;;;;;;;;;;18.69;100.00;97462.22;2532834;29;19934;-85
2023/07/28 05:48:44;;;;;;;;;;;;;;;18.60;100.00;97462.94;2523867;29;20371;-84
2023/07/28 05:50:00;;;;;;;;;;;;;;;18.67;100.00;97463.31;2528986;29;19934;-85
2023/07/28 05:51:16;;;;;;;;;;;;;;;18.66;100.00;97459.81;2533427;29;19934;-84
2023/07/28 05:52:31;;;;;;;;;;;;;;;18.55;100.00;97463.28;2535272;29;19942;-84
2023/07/28 05:53:47;;;;;;;;;;;;;;;18.76;100.00;97459.94;2534754;29;19974;-84
2023/07/28 05:55:03;;;;;;;;;;;;;;;18.88;100.00;97461.63;2533198;29;19938;-85
2023/07/28 05:56:19;;;;;;;;;;;;;;;18.94;100.00;97470.91;2533922;29;19939;-85
2023/07/28 05:57:34;;;;;;;;;;;;;;;18.98;100.00;97468.88;2531364;29;19931;-85
2023/07/28 05:58:50;;;;;;;;;;;;;;;18.86;100.00;97468.03;2534759;29;19938;-85
2023/07/28 06:00:09;;;;;;;;;;;;;;;18.90;100.00;97465.00;2535134;29;19935;-84
2023/07/28 06:01:26;;;;;;;;;;;;;;;19.06;100.00;97471.78;2532562;29;19954;-84
2023/07/28 06:02:42;;;;;;;;;;;;;;;18.90;100.00;97467.66;2534955;29;19939;-85
2023/07/28 06:03:59;;;;;;;;;;;;;;;18.89;100.00;97465.13;2533906;29;19931;-85
2023/07/28 06:05:14;;;;;;;;;;;;;;;18.92;100.00;97478.97;2534450;29;20081;-85
2023/07/28 06:06:29;;;;;;;;;;;;;;;18.99;100.00;97478.53;2535643;29;19935;-85
2023/07/28 06:07:45;;;;;;;;;;;;;;;19.07;100.00;97481.47;2533546;29;19942;-85
2023/07/28 06:09:00;;;;;;;;;;;;;;;19.09;100.00;97476.88;2534130;29;19947;-85
2023/07/28 06:10:16;;;;;;;;;;;;;;;18.83;100.00;97478.84;2532332;29;19931;-85
2023/07/28 06:11:31;;;;;;;;;;;;;;;18.76;100.00;97478.50;2533406;29;20351;-85
2023/07/28 06:12:46;;;;;;;;;;;;;;;19.03;100.00;97483.50;2534044;29;19974;-85
2023/07/28 06:14:02;;;;;;;;;;;;;;;18.92;100.00;97478.97;2532691;29;19931;-85
2023/07/28 06:15:17;;;;;;;;;;;;;;;19.07;100.00;97480.59;2532865;29;20207;-85
2023/07/28 06:16:33;;;;;;;;;;;;;;;19.05;100.00;97483.38;2532613;29;20513;-85
2023/07/28 06:17:48;;;;;;;;;;;;;;;19.25;100.00;97473.84;2533308;29;19970;-85
2023/07/28 06:19:08;;;;;;;;;;;;;;;19.17;100.00;97484.22;2533997;29;20434;-84
2023/07/28 06:20:24;;;;;;;;;;;;;;;19.03;100.00;97483.50;2533298;29;19938;-84
2023/07/28 06:21:39;;;;;;;;;;;;;;;19.25;100.00;97478.31;2534600;29;20387;-85
2023/07/28 06:22:55;;;;;;;;;;;;;;;19.40;100.00;97481.53;2534031;29;19938;-85
2023/07/28 06:24:10;;;;;;;;;;;;;;;19.33;100.00;97482.03;2533860;29;19938;-85
2023/07/28 06:25:25;;;;;;;;;;;;;;;19.41;100.00;97489.41;2534615;29;20284;-85
2023/07/28 06:26:41;;;;;;;;;;;;;;;19.46;100.00;97483.72;2522425;29;19931;-85
2023/07/28 06:27:56;;;;;;;;;;;;;;;19.50;100.00;97487.81;2527541;29;19932;-85
2023/07/28 06:29:12;;;;;;;;;;;;;;;19.39;100.00;97493.97;2533603;29;19931;-85